sensor_id;sensor_type;location;lat;lon;timestamp;P1;durP1;ratioP1;P2;durP2;ratioP2
26594;SDS011;14238;49.496;8.154;2022-08-19T00:00:14;24.17;;;22.27;;
26594;SDS011;14238;49.496;8.154;2022-08-19T00:02:40;24.70;;;22.53;;
26594;SDS011;14238;49.496;8.154;2022-08-19T00:05:06;24.70;;;22.77;;
26594;SDS011;14238;49.496;8.154;2022-08-19T00:07:32;25.17;;;22.83;;
26594;SDS011;14238;49.496;8.154;2022-08-19T00:09:58;25.33;;;23.43;;
26594;SDS011;14238;49.496;8.154;2022-08-19T00:12:24;24.43;;;22.43;;
26594;SDS011;14238;49.496;8.154;2022-08-19T00:14:49;23.27;;;21.37;;
26594;SDS011;14238;49.496;8.154;2022-08-19T00:17:15;24.87;;;22.97;;
26594;SDS011;14238;49.496;8.154;2022-08-19T00:19:40;26.13;;;23.83;;
26594;SDS011;14238;49.496;8.154;2022-08-19T00:22:06;24.93;;;22.93;;
26594;SDS011;14238;49.496;8.154;2022-08-19T00:24:33;24.60;;;22.60;;
26594;SDS011;14238;49.496;8.154;2022-08-19T00:27:00;24.20;;;22.20;;
26594;SDS011;14238;49.496;8.154;2022-08-19T00:29:27;25.37;;;23.37;;
26594;SDS011;14238;49.496;8.154;2022-08-19T00:31:52;27.07;;;24.77;;
26594;SDS011;14238;49.496;8.154;2022-08-19T00:34:20;25.10;;;23.13;;
26594;SDS011;14238;49.496;8.154;2022-08-19T00:36:46;25.30;;;23.30;;
26594;SDS011;14238;49.496;8.154;2022-08-19T00:39:13;25.20;;;23.00;;
26594;SDS011;14238;49.496;8.154;2022-08-19T00:41:43;25.87;;;23.77;;
26594;SDS011;14238;49.496;8.154;2022-08-19T00:44:13;26.30;;;24.10;;
26594;SDS011;14238;49.496;8.154;2022-08-19T00:46:48;26.77;;;24.57;;
26594;SDS011;14238;49.496;8.154;2022-08-19T00:49:16;24.40;;;22.00;;
26594;SDS011;14238;49.496;8.154;2022-08-19T00:51:48;27.30;;;25.00;;
26594;SDS011;14238;49.496;8.154;2022-08-19T00:54:18;25.57;;;23.47;;
26594;SDS011;14238;49.496;8.154;2022-08-19T00:56:44;25.67;;;23.57;;
26594;SDS011;14238;49.496;8.154;2022-08-19T00:59:10;24.90;;;22.73;;
26594;SDS011;14238;49.496;8.154;2022-08-19T01:01:37;25.50;;;23.20;;
26594;SDS011;14238;49.496;8.154;2022-08-19T01:04:04;27.10;;;24.80;;
26594;SDS011;14238;49.496;8.154;2022-08-19T01:06:30;24.87;;;22.73;;
26594;SDS011;14238;49.496;8.154;2022-08-19T01:08:57;26.43;;;24.13;;
26594;SDS011;14238;49.496;8.154;2022-08-19T01:11:23;25.53;;;23.10;;
26594;SDS011;14238;49.496;8.154;2022-08-19T01:13:50;25.93;;;23.47;;
26594;SDS011;14238;49.496;8.154;2022-08-19T01:16:18;23.63;;;21.73;;
26594;SDS011;14238;49.496;8.154;2022-08-19T01:18:46;26.10;;;23.97;;
26594;SDS011;14238;49.496;8.154;2022-08-19T01:21:18;28.53;;;26.20;;
26594;SDS011;14238;49.496;8.154;2022-08-19T01:23:50;26.07;;;23.87;;
26594;SDS011;14238;49.496;8.154;2022-08-19T01:26:18;25.17;;;23.07;;
26594;SDS011;14238;49.496;8.154;2022-08-19T01:28:46;27.10;;;24.70;;
26594;SDS011;14238;49.496;8.154;2022-08-19T01:31:16;26.77;;;24.47;;
26594;SDS011;14238;49.496;8.154;2022-08-19T01:33:44;26.90;;;24.17;;
26594;SDS011;14238;49.496;8.154;2022-08-19T01:36:13;27.47;;;25.10;;
26594;SDS011;14238;49.496;8.154;2022-08-19T01:38:41;25.17;;;22.97;;
26594;SDS011;14238;49.496;8.154;2022-08-19T01:41:09;28.03;;;25.73;;
26594;SDS011;14238;49.496;8.154;2022-08-19T01:43:37;25.37;;;23.20;;
26594;SDS011;14238;49.496;8.154;2022-08-19T01:46:03;26.87;;;24.67;;
26594;SDS011;14238;49.496;8.154;2022-08-19T01:48:37;26.03;;;24.00;;
26594;SDS011;14238;49.496;8.154;2022-08-19T01:51:04;26.53;;;24.30;;
26594;SDS011;14238;49.496;8.154;2022-08-19T01:53:30;26.37;;;24.27;;
26594;SDS011;14238;49.496;8.154;2022-08-19T01:55:56;26.67;;;24.53;;
26594;SDS011;14238;49.496;8.154;2022-08-19T01:58:22;26.63;;;24.37;;
26594;SDS011;14238;49.496;8.154;2022-08-19T02:00:55;26.83;;;24.60;;
26594;SDS011;14238;49.496;8.154;2022-08-19T02:03:20;26.80;;;24.47;;
26594;SDS011;14238;49.496;8.154;2022-08-19T02:05:47;26.10;;;24.00;;
26594;SDS011;14238;49.496;8.154;2022-08-19T02:08:12;28.20;;;26.00;;
26594;SDS011;14238;49.496;8.154;2022-08-19T02:10:39;27.00;;;24.57;;
26594;SDS011;14238;49.496;8.154;2022-08-19T02:13:07;26.43;;;24.07;;
26594;SDS011;14238;49.496;8.154;2022-08-19T02:15:32;27.57;;;25.27;;
26594;SDS011;14238;49.496;8.154;2022-08-19T02:17:58;27.57;;;25.17;;
26594;SDS011;14238;49.496;8.154;2022-08-19T02:20:24;24.93;;;23.00;;
26594;SDS011;14238;49.496;8.154;2022-08-19T02:22:49;24.47;;;22.47;;
26594;SDS011;14238;49.496;8.154;2022-08-19T02:25:15;26.00;;;23.70;;
26594;SDS011;14238;49.496;8.154;2022-08-19T02:27:41;26.27;;;23.97;;
26594;SDS011;14238;49.496;8.154;2022-08-19T02:30:08;26.13;;;23.73;;
26594;SDS011;14238;49.496;8.154;2022-08-19T02:32:36;26.60;;;24.27;;
26594;SDS011;14238;49.496;8.154;2022-08-19T02:35:02;26.80;;;24.40;;
26594;SDS011;14238;49.496;8.154;2022-08-19T02:37:28;26.13;;;23.97;;
26594;SDS011;14238;49.496;8.154;2022-08-19T02:40:12;26.33;;;24.03;;
26594;SDS011;14238;49.496;8.154;2022-08-19T02:42:37;25.43;;;23.20;;
26594;SDS011;14238;49.496;8.154;2022-08-19T02:45:03;24.50;;;22.50;;
26594;SDS011;14238;49.496;8.154;2022-08-19T02:47:29;23.77;;;21.83;;
26594;SDS011;14238;49.496;8.154;2022-08-19T02:49:55;25.20;;;23.07;;
26594;SDS011;14238;49.496;8.154;2022-08-19T02:52:20;23.33;;;21.43;;
26594;SDS011;14238;49.496;8.154;2022-08-19T02:54:48;23.17;;;21.30;;
26594;SDS011;14238;49.496;8.154;2022-08-19T02:57:13;24.57;;;22.33;;
26594;SDS011;14238;49.496;8.154;2022-08-19T02:59:39;24.77;;;22.43;;
26594;SDS011;14238;49.496;8.154;2022-08-19T03:02:04;24.63;;;22.53;;
26594;SDS011;14238;49.496;8.154;2022-08-19T03:04:30;24.90;;;22.77;;
26594;SDS011;14238;49.496;8.154;2022-08-19T03:06:55;23.87;;;21.90;;
26594;SDS011;14238;49.496;8.154;2022-08-19T03:09:21;23.00;;;21.20;;
26594;SDS011;14238;49.496;8.154;2022-08-19T03:11:47;23.43;;;21.53;;
26594;SDS011;14238;49.496;8.154;2022-08-19T03:14:12;24.10;;;22.10;;
26594;SDS011;14238;49.496;8.154;2022-08-19T03:16:42;23.57;;;21.73;;
26594;SDS011;14238;49.496;8.154;2022-08-19T03:19:09;22.00;;;20.00;;
26594;SDS011;14238;49.496;8.154;2022-08-19T03:21:35;24.53;;;22.50;;
26594;SDS011;14238;49.496;8.154;2022-08-19T03:24:03;23.13;;;21.37;;
26594;SDS011;14238;49.496;8.154;2022-08-19T03:26:30;23.07;;;21.07;;
26594;SDS011;14238;49.496;8.154;2022-08-19T03:28:56;24.20;;;22.10;;
26594;SDS011;14238;49.496;8.154;2022-08-19T03:31:22;23.10;;;21.20;;
26594;SDS011;14238;49.496;8.154;2022-08-19T03:33:49;22.97;;;21.17;;
26594;SDS011;14238;49.496;8.154;2022-08-19T03:36:17;22.53;;;20.67;;
26594;SDS011;14238;49.496;8.154;2022-08-19T03:38:48;23.63;;;21.40;;
26594;SDS011;14238;49.496;8.154;2022-08-19T03:41:16;23.17;;;21.13;;
26594;SDS011;14238;49.496;8.154;2022-08-19T03:43:45;24.13;;;22.07;;
26594;SDS011;14238;49.496;8.154;2022-08-19T03:46:15;23.10;;;21.30;;
26594;SDS011;14238;49.496;8.154;2022-08-19T03:48:46;20.97;;;19.33;;
26594;SDS011;14238;49.496;8.154;2022-08-19T03:51:31;23.30;;;21.40;;
26594;SDS011;14238;49.496;8.154;2022-08-19T03:54:03;22.67;;;20.70;;
26594;SDS011;14238;49.496;8.154;2022-08-19T03:56:36;22.70;;;20.80;;
26594;SDS011;14238;49.496;8.154;2022-08-19T03:59:04;22.17;;;20.17;;
26594;SDS011;14238;49.496;8.154;2022-08-19T04:01:31;24.90;;;22.47;;
26594;SDS011;14238;49.496;8.154;2022-08-19T04:03:57;23.37;;;21.47;;
26594;SDS011;14238;49.496;8.154;2022-08-19T04:06:28;23.20;;;21.23;;
26594;SDS011;14238;49.496;8.154;2022-08-19T04:08:56;23.80;;;21.90;;
26594;SDS011;14238;49.496;8.154;2022-08-19T04:11:25;24.63;;;22.53;;
26594;SDS011;14238;49.496;8.154;2022-08-19T04:13:55;22.10;;;20.33;;
26594;SDS011;14238;49.496;8.154;2022-08-19T04:16:22;21.50;;;19.70;;
26594;SDS011;14238;49.496;8.154;2022-08-19T04:18:49;22.30;;;20.23;;
26594;SDS011;14238;49.496;8.154;2022-08-19T04:21:19;22.90;;;21.00;;
26594;SDS011;14238;49.496;8.154;2022-08-19T04:23:46;23.50;;;21.67;;
26594;SDS011;14238;49.496;8.154;2022-08-19T04:26:21;22.60;;;20.80;;
26594;SDS011;14238;49.496;8.154;2022-08-19T04:28:51;20.90;;;19.23;;
26594;SDS011;14238;49.496;8.154;2022-08-19T04:31:27;23.93;;;22.03;;
26594;SDS011;14238;49.496;8.154;2022-08-19T04:33:58;21.40;;;19.70;;
26594;SDS011;14238;49.496;8.154;2022-08-19T04:36:27;22.23;;;20.23;;
26594;SDS011;14238;49.496;8.154;2022-08-19T04:38:59;21.57;;;19.60;;
26594;SDS011;14238;49.496;8.154;2022-08-19T04:41:27;21.00;;;19.27;;
26594;SDS011;14238;49.496;8.154;2022-08-19T04:44:12;21.07;;;19.37;;
26594;SDS011;14238;49.496;8.154;2022-08-19T04:46:37;21.47;;;19.77;;
26594;SDS011;14238;49.496;8.154;2022-08-19T04:49:04;21.50;;;19.80;;
26594;SDS011;14238;49.496;8.154;2022-08-19T04:51:31;21.10;;;19.43;;
26594;SDS011;14238;49.496;8.154;2022-08-19T04:53:57;22.67;;;20.77;;
26594;SDS011;14238;49.496;8.154;2022-08-19T04:56:24;21.10;;;19.40;;
26594;SDS011;14238;49.496;8.154;2022-08-19T04:58:51;20.90;;;19.30;;
26594;SDS011;14238;49.496;8.154;2022-08-19T05:01:25;20.33;;;18.73;;
26594;SDS011;14238;49.496;8.154;2022-08-19T05:03:53;20.90;;;19.20;;
26594;SDS011;14238;49.496;8.154;2022-08-19T05:06:19;20.13;;;18.53;;
26594;SDS011;14238;49.496;8.154;2022-08-19T05:08:46;19.97;;;18.37;;
26594;SDS011;14238;49.496;8.154;2022-08-19T05:11:16;19.90;;;18.30;;
26594;SDS011;14238;49.496;8.154;2022-08-19T05:13:47;20.90;;;19.10;;
26594;SDS011;14238;49.496;8.154;2022-08-19T05:16:14;19.37;;;17.77;;
26594;SDS011;14238;49.496;8.154;2022-08-19T05:18:42;19.03;;;17.53;;
26594;SDS011;14238;49.496;8.154;2022-08-19T05:21:26;19.87;;;18.27;;
26594;SDS011;14238;49.496;8.154;2022-08-19T05:24:11;18.90;;;17.40;;
26594;SDS011;14238;49.496;8.154;2022-08-19T05:26:38;18.50;;;17.10;;
26594;SDS011;14238;49.496;8.154;2022-08-19T05:29:05;18.10;;;16.53;;
26594;SDS011;14238;49.496;8.154;2022-08-19T05:31:32;18.00;;;16.60;;
26594;SDS011;14238;49.496;8.154;2022-08-19T05:33:58;18.47;;;16.77;;
26594;SDS011;14238;49.496;8.154;2022-08-19T05:36:28;17.13;;;15.30;;
26594;SDS011;14238;49.496;8.154;2022-08-19T05:38:57;17.20;;;15.90;;
26594;SDS011;14238;49.496;8.154;2022-08-19T05:41:23;18.40;;;16.70;;
26594;SDS011;14238;49.496;8.154;2022-08-19T05:43:54;16.47;;;15.13;;
26594;SDS011;14238;49.496;8.154;2022-08-19T05:46:23;15.60;;;14.40;;
26594;SDS011;14238;49.496;8.154;2022-08-19T05:48:49;17.60;;;16.10;;
26594;SDS011;14238;49.496;8.154;2022-08-19T05:51:15;17.30;;;15.90;;
26594;SDS011;14238;49.496;8.154;2022-08-19T05:53:41;16.93;;;15.63;;
26594;SDS011;14238;49.496;8.154;2022-08-19T05:56:10;16.87;;;15.47;;
26594;SDS011;14238;49.496;8.154;2022-08-19T05:58:38;17.63;;;16.33;;
26594;SDS011;14238;49.496;8.154;2022-08-19T06:01:04;16.50;;;14.90;;
26594;SDS011;14238;49.496;8.154;2022-08-19T06:03:35;17.27;;;15.87;;
26594;SDS011;14238;49.496;8.154;2022-08-19T06:06:02;17.07;;;15.47;;
26594;SDS011;14238;49.496;8.154;2022-08-19T06:08:28;16.93;;;15.53;;
26594;SDS011;14238;49.496;8.154;2022-08-19T06:10:54;16.50;;;14.83;;
26594;SDS011;14238;49.496;8.154;2022-08-19T06:13:20;16.43;;;13.97;;
26594;SDS011;14238;49.496;8.154;2022-08-19T06:15:47;17.20;;;15.80;;
26594;SDS011;14238;49.496;8.154;2022-08-19T06:18:14;17.17;;;15.67;;
26594;SDS011;14238;49.496;8.154;2022-08-19T06:20:41;16.53;;;15.20;;
26594;SDS011;14238;49.496;8.154;2022-08-19T06:23:07;16.33;;;14.80;;
26594;SDS011;14238;49.496;8.154;2022-08-19T06:25:33;15.80;;;14.60;;
26594;SDS011;14238;49.496;8.154;2022-08-19T06:27:59;15.60;;;14.30;;
26594;SDS011;14238;49.496;8.154;2022-08-19T06:30:25;17.90;;;16.40;;
26594;SDS011;14238;49.496;8.154;2022-08-19T06:32:50;15.23;;;14.13;;
26594;SDS011;14238;49.496;8.154;2022-08-19T06:35:16;15.50;;;14.30;;
26594;SDS011;14238;49.496;8.154;2022-08-19T06:37:42;15.80;;;14.60;;
26594;SDS011;14238;49.496;8.154;2022-08-19T06:40:09;15.97;;;14.67;;
26594;SDS011;14238;49.496;8.154;2022-08-19T06:42:35;15.73;;;14.47;;
26594;SDS011;14238;49.496;8.154;2022-08-19T06:45:03;14.93;;;13.73;;
26594;SDS011;14238;49.496;8.154;2022-08-19T06:47:30;16.50;;;15.10;;
26594;SDS011;14238;49.496;8.154;2022-08-19T06:49:57;16.27;;;14.87;;
26594;SDS011;14238;49.496;8.154;2022-08-19T06:52:31;14.77;;;13.67;;
26594;SDS011;14238;49.496;8.154;2022-08-19T06:54:58;16.13;;;14.90;;
26594;SDS011;14238;49.496;8.154;2022-08-19T06:57:25;16.83;;;15.43;;
26594;SDS011;14238;49.496;8.154;2022-08-19T06:59:51;14.83;;;13.73;;
26594;SDS011;14238;49.496;8.154;2022-08-19T07:02:17;15.63;;;14.33;;
26594;SDS011;14238;49.496;8.154;2022-08-19T07:04:43;15.53;;;14.23;;
26594;SDS011;14238;49.496;8.154;2022-08-19T07:07:11;16.27;;;15.07;;
26594;SDS011;14238;49.496;8.154;2022-08-19T07:09:39;15.23;;;13.93;;
26594;SDS011;14238;49.496;8.154;2022-08-19T07:12:08;16.90;;;15.53;;
26594;SDS011;14238;49.496;8.154;2022-08-19T07:14:39;16.30;;;14.87;;
26594;SDS011;14238;49.496;8.154;2022-08-19T07:17:09;16.07;;;14.67;;
26594;SDS011;14238;49.496;8.154;2022-08-19T07:19:37;16.97;;;15.57;;
26594;SDS011;14238;49.496;8.154;2022-08-19T07:22:04;17.90;;;16.30;;
26594;SDS011;14238;49.496;8.154;2022-08-19T07:24:31;16.43;;;15.13;;
26594;SDS011;14238;49.496;8.154;2022-08-19T07:26:58;14.70;;;13.33;;
26594;SDS011;14238;49.496;8.154;2022-08-19T07:29:27;15.40;;;14.20;;
26594;SDS011;14238;49.496;8.154;2022-08-19T07:31:55;17.67;;;16.17;;
26594;SDS011;14238;49.496;8.154;2022-08-19T07:34:21;17.07;;;15.77;;
26594;SDS011;14238;49.496;8.154;2022-08-19T07:36:48;16.87;;;15.43;;
26594;SDS011;14238;49.496;8.154;2022-08-19T07:39:15;17.70;;;16.10;;
26594;SDS011;14238;49.496;8.154;2022-08-19T07:41:43;16.87;;;15.50;;
26594;SDS011;14238;49.496;8.154;2022-08-19T07:44:10;15.07;;;13.87;;
26594;SDS011;14238;49.496;8.154;2022-08-19T07:46:38;17.37;;;15.87;;
26594;SDS011;14238;49.496;8.154;2022-08-19T07:49:06;15.77;;;14.37;;
26594;SDS011;14238;49.496;8.154;2022-08-19T07:51:33;14.27;;;13.20;;
26594;SDS011;14238;49.496;8.154;2022-08-19T07:53:59;15.30;;;14.10;;
26594;SDS011;14238;49.496;8.154;2022-08-19T07:56:25;16.70;;;15.40;;
26594;SDS011;14238;49.496;8.154;2022-08-19T07:58:51;15.53;;;14.33;;
26594;SDS011;14238;49.496;8.154;2022-08-19T08:01:19;16.17;;;14.97;;
26594;SDS011;14238;49.496;8.154;2022-08-19T08:03:48;16.90;;;15.50;;
26594;SDS011;14238;49.496;8.154;2022-08-19T08:06:34;18.80;;;17.00;;
26594;SDS011;14238;49.496;8.154;2022-08-19T08:09:23;16.67;;;15.33;;
26594;SDS011;14238;49.496;8.154;2022-08-19T08:11:52;17.50;;;16.03;;
26594;SDS011;14238;49.496;8.154;2022-08-19T08:14:23;17.77;;;16.40;;
26594;SDS011;14238;49.496;8.154;2022-08-19T08:16:51;16.13;;;14.97;;
26594;SDS011;14238;49.496;8.154;2022-08-19T08:19:19;17.40;;;16.00;;
26594;SDS011;14238;49.496;8.154;2022-08-19T08:21:46;16.07;;;14.87;;
26594;SDS011;14238;49.496;8.154;2022-08-19T08:24:13;17.57;;;16.07;;
26594;SDS011;14238;49.496;8.154;2022-08-19T08:26:40;15.77;;;14.57;;
26594;SDS011;14238;49.496;8.154;2022-08-19T08:29:05;16.17;;;14.90;;
26594;SDS011;14238;49.496;8.154;2022-08-19T08:31:35;18.13;;;16.63;;
26594;SDS011;14238;49.496;8.154;2022-08-19T08:34:02;19.03;;;17.53;;
26594;SDS011;14238;49.496;8.154;2022-08-19T08:36:28;18.90;;;17.40;;
26594;SDS011;14238;49.496;8.154;2022-08-19T08:38:54;18.27;;;16.83;;
26594;SDS011;14238;49.496;8.154;2022-08-19T08:43:47;19.37;;;17.73;;
26594;SDS011;14238;49.496;8.154;2022-08-19T08:46:59;19.60;;;18.10;;
26594;SDS011;14238;49.496;8.154;2022-08-19T08:52:13;19.10;;;17.73;;
26594;SDS011;14238;49.496;8.154;2022-08-19T08:54:46;17.70;;;16.40;;
26594;SDS011;14238;49.496;8.154;2022-08-19T08:57:15;19.47;;;17.97;;
26594;SDS011;14238;49.496;8.154;2022-08-19T08:59:46;19.53;;;18.03;;
26594;SDS011;14238;49.496;8.154;2022-08-19T09:02:16;17.53;;;16.10;;
26594;SDS011;14238;49.496;8.154;2022-08-19T09:04:41;20.70;;;19.10;;
26594;SDS011;14238;49.496;8.154;2022-08-19T09:07:12;19.13;;;17.63;;
26594;SDS011;14238;49.496;8.154;2022-08-19T09:09:51;18.60;;;16.93;;
26594;SDS011;14238;49.496;8.154;2022-08-19T09:12:31;18.33;;;16.83;;
26594;SDS011;14238;49.496;8.154;2022-08-19T09:15:17;18.77;;;17.37;;
26594;SDS011;14238;49.496;8.154;2022-08-19T09:17:46;18.03;;;16.40;;
26594;SDS011;14238;49.496;8.154;2022-08-19T09:20:14;16.60;;;15.50;;
26594;SDS011;14238;49.496;8.154;2022-08-19T09:22:43;17.13;;;15.77;;
26594;SDS011;14238;49.496;8.154;2022-08-19T09:25:10;17.17;;;15.97;;
26594;SDS011;14238;49.496;8.154;2022-08-19T09:27:39;16.90;;;15.70;;
26594;SDS011;14238;49.496;8.154;2022-08-19T09:30:06;17.83;;;16.40;;
26594;SDS011;14238;49.496;8.154;2022-08-19T09:32:33;18.67;;;17.17;;
26594;SDS011;14238;49.496;8.154;2022-08-19T09:34:59;17.73;;;16.43;;
26594;SDS011;14238;49.496;8.154;2022-08-19T09:37:26;16.30;;;15.20;;
26594;SDS011;14238;49.496;8.154;2022-08-19T09:39:52;14.20;;;13.30;;
26594;SDS011;14238;49.496;8.154;2022-08-19T09:42:18;14.87;;;13.57;;
26594;SDS011;14238;49.496;8.154;2022-08-19T09:44:44;17.37;;;16.10;;
26594;SDS011;14238;49.496;8.154;2022-08-19T09:47:11;16.80;;;15.60;;
26594;SDS011;14238;49.496;8.154;2022-08-19T09:49:38;15.60;;;14.50;;
26594;SDS011;14238;49.496;8.154;2022-08-19T09:52:05;15.37;;;14.17;;
26594;SDS011;14238;49.496;8.154;2022-08-19T09:54:32;13.70;;;12.60;;
26594;SDS011;14238;49.496;8.154;2022-08-19T09:56:59;12.43;;;11.50;;
26594;SDS011;14238;49.496;8.154;2022-08-19T09:59:28;13.10;;;12.13;;
26594;SDS011;14238;49.496;8.154;2022-08-19T10:01:54;14.20;;;13.40;;
26594;SDS011;14238;49.496;8.154;2022-08-19T10:04:20;17.07;;;15.97;;
26594;SDS011;14238;49.496;8.154;2022-08-19T10:06:46;17.37;;;16.10;;
26594;SDS011;14238;49.496;8.154;2022-08-19T10:09:15;18.40;;;17.10;;
26594;SDS011;14238;49.496;8.154;2022-08-19T10:11:43;17.17;;;15.87;;
26594;SDS011;14238;49.496;8.154;2022-08-19T10:14:12;15.27;;;14.30;;
26594;SDS011;14238;49.496;8.154;2022-08-19T10:16:38;16.27;;;15.07;;
26594;SDS011;14238;49.496;8.154;2022-08-19T10:19:06;13.53;;;12.53;;
26594;SDS011;14238;49.496;8.154;2022-08-19T10:21:32;14.27;;;13.27;;
26594;SDS011;14238;49.496;8.154;2022-08-19T10:23:59;13.77;;;12.60;;
26594;SDS011;14238;49.496;8.154;2022-08-19T10:26:31;15.20;;;14.20;;
26594;SDS011;14238;49.496;8.154;2022-08-19T10:29:02;16.93;;;15.83;;
26594;SDS011;14238;49.496;8.154;2022-08-19T10:31:30;15.80;;;14.40;;
26594;SDS011;14238;49.496;8.154;2022-08-19T10:33:57;14.57;;;13.40;;
26594;SDS011;14238;49.496;8.154;2022-08-19T10:36:25;12.10;;;11.10;;
26594;SDS011;14238;49.496;8.154;2022-08-19T10:38:53;9.50;;;8.90;;
26594;SDS011;14238;49.496;8.154;2022-08-19T10:41:24;11.60;;;10.67;;
26594;SDS011;14238;49.496;8.154;2022-08-19T10:43:51;10.60;;;9.80;;
26594;SDS011;14238;49.496;8.154;2022-08-19T10:46:23;12.43;;;11.53;;
26594;SDS011;14238;49.496;8.154;2022-08-19T10:48:50;12.10;;;11.23;;
26594;SDS011;14238;49.496;8.154;2022-08-19T10:51:16;13.63;;;12.77;;
26594;SDS011;14238;49.496;8.154;2022-08-19T10:54:01;13.00;;;12.10;;
26594;SDS011;14238;49.496;8.154;2022-08-19T10:56:27;14.20;;;13.30;;
26594;SDS011;14238;49.496;8.154;2022-08-19T10:59:12;10.63;;;9.93;;
26594;SDS011;14238;49.496;8.154;2022-08-19T11:01:39;10.40;;;9.60;;
26594;SDS011;14238;49.496;8.154;2022-08-19T11:04:05;9.90;;;9.20;;
26594;SDS011;14238;49.496;8.154;2022-08-19T11:06:34;10.53;;;9.63;;
26594;SDS011;14238;49.496;8.154;2022-08-19T11:09:02;11.30;;;10.47;;
26594;SDS011;14238;49.496;8.154;2022-08-19T11:11:28;13.80;;;10.30;;
26594;SDS011;14238;49.496;8.154;2022-08-19T11:13:53;10.60;;;9.80;;
26594;SDS011;14238;49.496;8.154;2022-08-19T11:16:21;10.93;;;10.13;;
26594;SDS011;14238;49.496;8.154;2022-08-19T11:18:51;10.60;;;10.00;;
26594;SDS011;14238;49.496;8.154;2022-08-19T11:21:27;9.77;;;9.17;;
26594;SDS011;14238;49.496;8.154;2022-08-19T11:23:59;9.00;;;8.50;;
26594;SDS011;14238;49.496;8.154;2022-08-19T11:26:28;8.90;;;8.30;;
26594;SDS011;14238;49.496;8.154;2022-08-19T11:28:55;8.50;;;8.00;;
26594;SDS011;14238;49.496;8.154;2022-08-19T11:31:23;7.50;;;7.10;;
26594;SDS011;14238;49.496;8.154;2022-08-19T11:33:51;6.63;;;6.23;;
26594;SDS011;14238;49.496;8.154;2022-08-19T11:36:19;7.43;;;7.00;;
26594;SDS011;14238;49.496;8.154;2022-08-19T11:38:46;6.93;;;6.53;;
26594;SDS011;14238;49.496;8.154;2022-08-19T11:41:13;8.00;;;7.40;;
26594;SDS011;14238;49.496;8.154;2022-08-19T11:43:40;7.27;;;6.77;;
26594;SDS011;14238;49.496;8.154;2022-08-19T11:46:06;6.53;;;6.13;;
26594;SDS011;14238;49.496;8.154;2022-08-19T11:48:34;7.17;;;6.67;;
26594;SDS011;14238;49.496;8.154;2022-08-19T11:51:03;7.57;;;7.07;;
26594;SDS011;14238;49.496;8.154;2022-08-19T11:53:33;7.07;;;6.67;;
26594;SDS011;14238;49.496;8.154;2022-08-19T11:55:59;6.57;;;6.17;;
26594;SDS011;14238;49.496;8.154;2022-08-19T11:58:25;7.30;;;6.90;;
26594;SDS011;14238;49.496;8.154;2022-08-19T12:00:51;7.27;;;6.87;;
26594;SDS011;14238;49.496;8.154;2022-08-19T12:03:17;8.73;;;8.23;;
26594;SDS011;14238;49.496;8.154;2022-08-19T12:05:44;8.83;;;8.17;;
26594;SDS011;14238;49.496;8.154;2022-08-19T12:08:10;7.03;;;6.63;;
26594;SDS011;14238;49.496;8.154;2022-08-19T12:10:37;7.10;;;6.60;;
26594;SDS011;14238;49.496;8.154;2022-08-19T12:13:04;8.20;;;6.73;;
26594;SDS011;14238;49.496;8.154;2022-08-19T12:15:34;6.40;;;6.00;;
26594;SDS011;14238;49.496;8.154;2022-08-19T12:18:05;6.17;;;5.77;;
26594;SDS011;14238;49.496;8.154;2022-08-19T12:20:33;6.73;;;6.33;;
26594;SDS011;14238;49.496;8.154;2022-08-19T12:23:03;6.53;;;6.23;;
26594;SDS011;14238;49.496;8.154;2022-08-19T12:25:31;6.97;;;6.50;;
26594;SDS011;14238;49.496;8.154;2022-08-19T12:27:58;5.17;;;4.87;;
26594;SDS011;14238;49.496;8.154;2022-08-19T12:30:23;5.50;;;5.20;;
26594;SDS011;14238;49.496;8.154;2022-08-19T12:32:49;5.40;;;5.10;;
26594;SDS011;14238;49.496;8.154;2022-08-19T12:35:16;5.50;;;5.10;;
26594;SDS011;14238;49.496;8.154;2022-08-19T12:37:42;5.00;;;4.60;;
26594;SDS011;14238;49.496;8.154;2022-08-19T12:40:09;5.00;;;4.60;;
26594;SDS011;14238;49.496;8.154;2022-08-19T12:42:36;7.70;;;5.37;;
26594;SDS011;14238;49.496;8.154;2022-08-19T12:45:02;5.20;;;4.90;;
26594;SDS011;14238;49.496;8.154;2022-08-19T12:47:28;5.70;;;5.30;;
26594;SDS011;14238;49.496;8.154;2022-08-19T12:49:55;5.10;;;4.90;;
26594;SDS011;14238;49.496;8.154;2022-08-19T12:52:24;16.70;;;5.13;;
26594;SDS011;14238;49.496;8.154;2022-08-19T12:54:52;4.70;;;4.40;;
26594;SDS011;14238;49.496;8.154;2022-08-19T12:57:19;5.57;;;5.10;;
26594;SDS011;14238;49.496;8.154;2022-08-19T12:59:44;5.10;;;4.80;;
26594;SDS011;14238;49.496;8.154;2022-08-19T13:02:10;5.03;;;4.73;;
26594;SDS011;14238;49.496;8.154;2022-08-19T13:04:35;4.97;;;4.43;;
26594;SDS011;14238;49.496;8.154;2022-08-19T13:07:05;4.80;;;4.60;;
26594;SDS011;14238;49.496;8.154;2022-08-19T13:09:31;4.73;;;4.33;;
26594;SDS011;14238;49.496;8.154;2022-08-19T13:11:56;4.43;;;4.23;;
26594;SDS011;14238;49.496;8.154;2022-08-19T13:14:22;4.60;;;4.40;;
26594;SDS011;14238;49.496;8.154;2022-08-19T13:16:47;4.80;;;4.60;;
26594;SDS011;14238;49.496;8.154;2022-08-19T13:19:13;5.30;;;5.00;;
26594;SDS011;14238;49.496;8.154;2022-08-19T13:21:38;5.47;;;5.07;;
26594;SDS011;14238;49.496;8.154;2022-08-19T13:24:04;5.30;;;5.00;;
26594;SDS011;14238;49.496;8.154;2022-08-19T13:26:30;5.27;;;4.97;;
26594;SDS011;14238;49.496;8.154;2022-08-19T13:28:55;5.73;;;5.20;;
26594;SDS011;14238;49.496;8.154;2022-08-19T13:31:40;5.73;;;5.23;;
26594;SDS011;14238;49.496;8.154;2022-08-19T13:34:32;6.10;;;5.50;;
26594;SDS011;14238;49.496;8.154;2022-08-19T13:37:00;5.23;;;4.97;;
26594;SDS011;14238;49.496;8.154;2022-08-19T13:39:30;5.60;;;5.20;;
26594;SDS011;14238;49.496;8.154;2022-08-19T13:41:57;5.40;;;5.10;;
26594;SDS011;14238;49.496;8.154;2022-08-19T13:44:25;5.53;;;5.23;;
26594;SDS011;14238;49.496;8.154;2022-08-19T13:46:54;5.10;;;4.90;;
26594;SDS011;14238;49.496;8.154;2022-08-19T13:49:25;6.00;;;5.60;;
26594;SDS011;14238;49.496;8.154;2022-08-19T13:51:55;5.83;;;5.43;;
26594;SDS011;14238;49.496;8.154;2022-08-19T13:54:21;5.87;;;5.47;;
26594;SDS011;14238;49.496;8.154;2022-08-19T13:56:47;5.53;;;5.23;;
26594;SDS011;14238;49.496;8.154;2022-08-19T13:59:12;5.87;;;5.57;;
26594;SDS011;14238;49.496;8.154;2022-08-19T14:01:38;6.20;;;5.80;;
26594;SDS011;14238;49.496;8.154;2022-08-19T14:04:04;6.17;;;5.77;;
26594;SDS011;14238;49.496;8.154;2022-08-19T14:06:30;5.70;;;5.40;;
26594;SDS011;14238;49.496;8.154;2022-08-19T14:08:56;5.90;;;5.43;;
26594;SDS011;14238;49.496;8.154;2022-08-19T14:11:22;10.23;;;5.50;;
26594;SDS011;14238;49.496;8.154;2022-08-19T14:13:48;5.37;;;5.07;;
26594;SDS011;14238;49.496;8.154;2022-08-19T14:16:14;6.20;;;5.90;;
26594;SDS011;14238;49.496;8.154;2022-08-19T14:18:39;5.30;;;5.00;;
26594;SDS011;14238;49.496;8.154;2022-08-19T14:21:06;7.07;;;5.57;;
26594;SDS011;14238;49.496;8.154;2022-08-19T14:23:32;5.60;;;5.30;;
26594;SDS011;14238;49.496;8.154;2022-08-19T14:26:06;5.27;;;4.97;;
26594;SDS011;14238;49.496;8.154;2022-08-19T14:28:36;5.83;;;5.53;;
26594;SDS011;14238;49.496;8.154;2022-08-19T14:31:04;5.87;;;5.57;;
26594;SDS011;14238;49.496;8.154;2022-08-19T14:33:29;6.50;;;6.00;;
26594;SDS011;14238;49.496;8.154;2022-08-19T14:35:55;6.80;;;6.37;;
26594;SDS011;14238;49.496;8.154;2022-08-19T14:38:21;6.17;;;5.87;;